createdAt,value
2022-11-26T00:01:20.576Z,7.10
2022-11-26T00:03:49.257Z,7.20
2022-11-26T00:06:40.986Z,7.10
2022-11-26T00:09:17.012Z,7.10
2022-11-26T00:11:43.901Z,7.20
2022-11-26T00:14:17.738Z,7.20
2022-11-26T00:16:45.487Z,7.10
2022-11-26T00:19:12.437Z,7.10
2022-11-26T00:21:41.076Z,6.90
2022-11-26T00:24:26.098Z,6.80
2022-11-26T00:26:53.914Z,6.80
2022-11-26T00:29:20.765Z,6.70
2022-11-26T00:31:47.985Z,6.80
2022-11-26T00:34:14.898Z,6.80
2022-11-26T00:36:44.266Z,6.90
2022-11-26T00:39:17.219Z,6.80
2022-11-26T00:41:49.393Z,6.70
2022-11-26T00:44:24.470Z,6.80
2022-11-26T00:46:52.151Z,6.90
2022-11-26T00:49:20.780Z,6.90
2022-11-26T00:51:48.184Z,7.20
2022-11-26T00:54:18.516Z,6.80
2022-11-26T00:56:46.422Z,6.90
2022-11-26T00:59:14.755Z,6.90
2022-11-26T01:01:41.640Z,6.80
2022-11-26T01:04:08.425Z,6.80
2022-11-26T01:06:45.595Z,6.80
2022-11-26T01:09:22.142Z,6.80
2022-11-26T01:11:53.729Z,6.80
2022-11-26T01:14:22.566Z,6.70
2022-11-26T01:16:50.831Z,6.70
2022-11-26T01:19:18.018Z,6.40
2022-11-26T01:21:45.253Z,6.40
2022-11-26T01:24:12.113Z,6.60
2022-11-26T01:26:42.727Z,5.70
2022-11-26T01:29:18.142Z,6.60
2022-11-26T01:31:45.613Z,6.50
2022-11-26T01:34:13.262Z,6.40
2022-11-26T01:36:41.900Z,6.50
2022-11-26T01:39:18.527Z,6.50
2022-11-26T01:42:02.755Z,6.50
2022-11-26T01:44:32.394Z,6.50
2022-11-26T01:47:00.881Z,6.50
2022-11-26T01:49:34.373Z,6.50
2022-11-26T01:52:13.809Z,6.50
2022-11-26T01:54:43.297Z,6.50
2022-11-26T01:57:18.688Z,6.50
2022-11-26T01:59:51.218Z,6.50
2022-11-26T02:02:18.970Z,6.40
2022-11-26T02:05:15.094Z,6.30
2022-11-26T02:07:42.199Z,6.30
2022-11-26T02:10:09.911Z,6.20
2022-11-26T02:12:37.849Z,6.30
2022-11-26T02:15:05.071Z,6.30
2022-11-26T02:17:38.225Z,6.40
2022-11-26T02:20:42.489Z,6.40
2022-11-26T02:23:21.314Z,6.40
2022-11-26T02:26:25.621Z,6.40
2022-11-26T02:29:10.155Z,6.20
2022-11-26T02:31:49.451Z,6.20
2022-11-26T02:34:19.478Z,6.30
2022-11-26T02:37:00.377Z,6.30
2022-11-26T02:39:29.201Z,6.90
2022-11-26T02:42:04.137Z,6.40
2022-11-26T02:44:45.280Z,6.60
2022-11-26T02:47:15.792Z,6.40
2022-11-26T02:49:45.605Z,6.60
2022-11-26T02:52:16.602Z,6.40
2022-11-26T02:54:45.158Z,6.50
2022-11-26T02:57:15.445Z,6.30
2022-11-26T02:59:42.916Z,6.20
2022-11-26T03:02:25.911Z,6.50
2022-11-26T03:04:56.782Z,6.10
2022-11-26T03:07:24.267Z,6.20
2022-11-26T03:09:57.237Z,6.20
2022-11-26T03:12:24.533Z,6.10
2022-11-26T03:14:52.252Z,6.40
2022-11-26T03:17:19.571Z,6.20
2022-11-26T03:19:47.016Z,6.20
2022-11-26T03:22:14.921Z,6.10
2022-11-26T03:24:42.088Z,6.20
2022-11-26T03:27:09.100Z,6.10
2022-11-26T03:29:36.439Z,6.20
2022-11-26T03:32:03.878Z,6.10
2022-11-26T03:34:31.168Z,6.10
2022-11-26T03:36:57.954Z,6.10
2022-11-26T03:39:24.814Z,6.20
2022-11-26T03:41:52.013Z,6.00
2022-11-26T03:44:18.760Z,6.00
2022-11-26T03:46:45.564Z,6.10
2022-11-26T03:49:12.808Z,6.30
2022-11-26T03:51:39.629Z,6.10
2022-11-26T03:54:06.915Z,6.20
2022-11-26T03:56:33.746Z,6.40
2022-11-26T03:59:00.721Z,6.50
2022-11-26T04:01:27.601Z,6.40
2022-11-26T04:03:54.457Z,6.40
2022-11-26T04:06:21.563Z,6.40
2022-11-26T04:08:48.743Z,6.40
2022-11-26T04:11:15.940Z,6.30
2022-11-26T04:13:42.837Z,6.30
2022-11-26T04:16:10.012Z,6.40
2022-11-26T04:18:37.209Z,6.40
2022-11-26T04:21:07.791Z,6.40
2022-11-26T04:23:35.600Z,6.20
2022-11-26T04:26:02.435Z,6.10
2022-11-26T04:28:29.187Z,6.20
2022-11-26T04:30:55.954Z,6.20
2022-11-26T04:33:22.726Z,6.20
2022-11-26T04:35:50.613Z,6.20
2022-11-26T04:38:19.449Z,6.20
2022-11-26T04:40:49.853Z,6.10
2022-11-26T04:43:16.630Z,6.10
2022-11-26T04:45:43.935Z,6.00
2022-11-26T04:48:11.250Z,5.90
2022-11-26T04:50:37.982Z,5.90
2022-11-26T04:53:04.912Z,6.00
2022-11-26T04:55:31.793Z,5.90
2022-11-26T04:57:59.366Z,6.40
2022-11-26T05:00:26.258Z,5.90
2022-11-26T05:02:53.085Z,6.00
2022-11-26T05:05:19.891Z,5.80
2022-11-26T05:07:46.797Z,5.80
2022-11-26T05:10:13.766Z,5.70
2022-11-26T05:12:40.834Z,5.70
2022-11-26T05:15:08.473Z,5.50
2022-11-26T05:17:35.318Z,5.50
2022-11-26T05:20:02.073Z,5.50
2022-11-26T05:22:28.829Z,5.50
2022-11-26T05:24:56.019Z,5.50
2022-11-26T05:27:23.165Z,5.40
2022-11-26T05:29:49.955Z,5.40
2022-11-26T05:32:17.169Z,5.50
2022-11-26T05:34:43.887Z,5.60
2022-11-26T05:37:10.742Z,5.60
2022-11-26T05:39:37.549Z,5.70
2022-11-26T05:42:08.924Z,5.70
2022-11-26T05:44:37.654Z,5.80
2022-11-26T05:47:05.385Z,5.90
2022-11-26T05:49:32.959Z,6.00
2022-11-26T05:52:00.298Z,5.90
2022-11-26T05:54:27.197Z,5.90
2022-11-26T05:56:58.618Z,5.90
2022-11-26T05:59:27.326Z,5.90
2022-11-26T06:01:54.351Z,5.80
2022-11-26T06:04:21.326Z,5.70
2022-11-26T06:06:48.226Z,5.70
2022-11-26T06:09:15.394Z,5.60
2022-11-26T06:11:42.573Z,5.50
2022-11-26T06:14:10.566Z,5.60
2022-11-26T06:16:38.113Z,5.80
2022-11-26T06:19:05.003Z,5.90
2022-11-26T06:21:31.849Z,5.80
2022-11-26T06:23:59.783Z,5.60
2022-11-26T06:26:26.875Z,5.60
2022-11-26T06:28:53.693Z,5.60
2022-11-26T06:31:20.972Z,6.30
2022-11-26T06:33:48.545Z,5.80
2022-11-26T06:36:15.333Z,5.90
2022-11-26T06:38:42.129Z,6.00
2022-11-26T06:41:09.133Z,5.90
2022-11-26T06:43:36.273Z,6.00
2022-11-26T06:46:04.958Z,6.10
2022-11-26T06:48:32.569Z,6.00
2022-11-26T06:51:08.029Z,6.10
2022-11-26T06:53:35.143Z,6.20
2022-11-26T06:56:07.215Z,6.20
2022-11-26T06:58:34.286Z,6.30
2022-11-26T07:01:06.893Z,6.40
2022-11-26T07:03:33.672Z,6.40
2022-11-26T07:06:00.529Z,6.40
2022-11-26T07:08:27.392Z,6.40
2022-11-26T07:10:54.577Z,6.90
2022-11-26T07:13:21.407Z,6.30
2022-11-26T07:15:48.265Z,6.30
2022-11-26T07:18:15.062Z,6.50
2022-11-26T07:20:41.817Z,6.60
2022-11-26T07:23:08.734Z,6.60
2022-11-26T07:25:37.044Z,6.60
2022-11-26T07:28:03.983Z,6.70
2022-11-26T07:30:30.783Z,6.80
2022-11-26T07:32:58.689Z,7.00
2022-11-26T07:35:25.484Z,7.20
2022-11-26T07:37:52.326Z,7.30
2022-11-26T07:40:19.451Z,7.30
2022-11-26T07:42:50.411Z,7.30
2022-11-26T07:45:19.778Z,7.30
2022-11-26T07:47:46.557Z,7.10
2022-11-26T07:50:13.292Z,7.10
2022-11-26T07:52:40.120Z,7.20
2022-11-26T07:55:11.093Z,7.40
2022-11-26T07:57:39.599Z,7.40
2022-11-26T08:00:07.106Z,7.50
2022-11-26T08:02:33.907Z,7.60
2022-11-26T08:05:00.718Z,7.70
2022-11-26T08:07:29.464Z,7.80
2022-11-26T08:09:56.691Z,7.60
2022-11-26T08:12:23.581Z,7.50
2022-11-26T08:14:50.704Z,7.30
2022-11-26T08:17:17.543Z,7.30
2022-11-26T08:19:44.306Z,7.30
2022-11-26T08:22:11.085Z,7.30
2022-11-26T08:24:38.455Z,7.50
2022-11-26T08:27:05.605Z,7.50
2022-11-26T08:29:32.375Z,7.50
2022-11-26T08:31:59.237Z,7.50
2022-11-26T08:34:26.010Z,7.50
2022-11-26T08:36:55.497Z,7.60
2022-11-26T08:39:22.330Z,7.70
2022-11-26T08:41:52.446Z,7.70
2022-11-26T08:44:20.591Z,7.80
2022-11-26T08:46:47.449Z,7.90
2022-11-26T08:49:17.798Z,7.80
2022-11-26T08:51:45.229Z,7.80
2022-11-26T08:54:12.094Z,7.80
2022-11-26T08:56:39.082Z,7.90
2022-11-26T08:59:06.018Z,8.10
2022-11-26T09:01:34.134Z,8.20
2022-11-26T09:04:11.596Z,8.20
2022-11-26T09:06:41.043Z,8.30
2022-11-26T09:09:15.795Z,8.20
2022-11-26T09:11:49.944Z,8.30
2022-11-26T09:14:23.083Z,8.40
2022-11-26T09:16:50.791Z,8.50
2022-11-26T09:19:18.170Z,8.40
2022-11-26T09:21:45.701Z,8.50
2022-11-26T09:24:13.963Z,8.40
2022-11-26T09:26:41.158Z,8.50
2022-11-26T09:29:11.314Z,8.40
2022-11-26T09:31:49.739Z,8.50
2022-11-26T09:34:25.584Z,8.50
2022-11-26T09:36:52.440Z,8.60
2022-11-26T09:39:19.273Z,8.80
2022-11-26T09:42:11.912Z,8.80
2022-11-26T09:45:18.187Z,8.80
2022-11-26T09:47:48.635Z,8.90
2022-11-26T09:50:15.354Z,8.90
2022-11-26T09:53:00.355Z,9.00
2022-11-26T09:55:33.335Z,8.80
2022-11-26T10:03:28.853Z,8.80
2022-11-26T10:06:26.477Z,8.40
2022-11-26T10:12:04.192Z,8.00
2022-11-26T10:14:53.158Z,7.10
2022-11-26T10:17:42.452Z,10.10
2022-11-26T10:20:34.402Z,8.20
2022-11-26T10:23:11.480Z,8.90
2022-11-26T10:25:50.571Z,8.10
2022-11-26T10:28:23.046Z,8.60
2022-11-26T10:30:57.631Z,10.10
2022-11-26T10:33:26.701Z,8.80
2022-11-26T10:35:55.101Z,8.30
2022-11-26T10:38:25.374Z,8.20
2022-11-26T10:40:52.641Z,8.00
2022-11-26T10:43:24.644Z,9.20
2022-11-26T10:48:37.595Z,9.40
2022-11-26T10:56:44.152Z,9.80
2022-11-26T10:59:31.177Z,9.00
2022-11-26T11:02:05.123Z,8.60
2022-11-26T11:04:45.370Z,10.00
2022-11-26T11:40:11.811Z,10.50
2022-11-26T11:49:36.574Z,10.50
2022-11-26T11:52:26.601Z,9.60
2022-11-26T11:55:04.836Z,9.90
2022-11-26T11:57:57.103Z,10.60
2022-11-26T12:00:51.615Z,9.10
2022-11-26T12:03:56.334Z,9.00
2022-11-26T12:06:29.584Z,10.30
2022-11-26T12:09:17.362Z,9.80
2022-11-26T12:11:56.938Z,10.40
2022-11-26T12:14:43.545Z,10.00
2022-11-26T12:17:33.340Z,8.80
2022-11-26T12:20:33.838Z,10.10
2022-11-26T12:23:22.990Z,10.00
2022-11-26T12:31:58.924Z,8.40
2022-11-26T12:34:35.222Z,8.80
2022-11-26T12:37:21.257Z,10.20
2022-11-26T12:42:48.282Z,10.10
2022-11-26T12:45:20.832Z,8.80
2022-11-26T12:47:54.152Z,8.60
2022-11-26T12:50:38.120Z,9.90
2022-11-26T12:56:22.061Z,9.90
2022-11-26T13:04:47.378Z,9.90
2022-11-26T13:15:42.315Z,9.90
2022-11-26T13:18:19.712Z,10.00
2022-11-26T13:20:59.240Z,9.60
2022-11-26T13:23:58.109Z,8.10
2022-11-26T13:27:01.528Z,8.50
2022-11-26T13:30:00.119Z,9.30
2022-11-26T13:32:39.536Z,8.50
2022-11-26T13:35:19.543Z,9.90
2022-11-26T13:38:18.093Z,8.70
2022-11-26T13:41:06.092Z,10.00
2022-11-26T13:43:50.182Z,9.80
2022-11-26T13:46:28.579Z,8.90
2022-11-26T13:49:05.035Z,9.70
2022-11-26T13:51:42.647Z,8.30
2022-11-26T13:54:35.707Z,9.70
2022-11-26T13:57:12.985Z,8.40
2022-11-26T14:00:07.644Z,9.80
2022-11-26T14:02:35.511Z,8.30
2022-11-26T14:05:08.876Z,9.00
2022-11-26T14:07:36.330Z,8.40
2022-11-26T14:10:07.789Z,9.80
2022-11-26T14:13:03.820Z,8.80
2022-11-26T14:15:43.270Z,8.30
2022-11-26T14:18:15.353Z,8.30
2022-11-26T14:20:58.168Z,9.50
2022-11-26T14:23:46.692Z,8.20
2022-11-26T14:26:16.962Z,9.10
2022-11-26T14:28:44.913Z,8.80
2022-11-26T14:31:23.482Z,9.00
2022-11-26T14:33:54.441Z,9.70
2022-11-26T14:44:27.579Z,9.80
2022-11-26T14:47:01.993Z,9.70
2022-11-26T14:49:41.739Z,8.50
2022-11-26T14:52:26.827Z,9.70
2022-11-26T14:57:54.428Z,9.70
2022-11-26T15:00:25.295Z,8.40
2022-11-26T15:02:53.038Z,8.60
2022-11-26T15:08:06.602Z,9.50
2022-11-26T15:13:31.815Z,9.40
2022-11-26T15:16:01.741Z,8.10
2022-11-26T15:18:31.779Z,9.40
2022-11-26T15:21:01.310Z,8.80
2022-11-26T15:23:32.692Z,9.50
2022-11-26T15:26:01.033Z,8.10
2022-11-26T15:28:28.543Z,8.10
2022-11-26T15:31:02.507Z,8.10
2022-11-26T15:33:33.011Z,9.00
2022-11-26T15:36:00.496Z,8.80
2022-11-26T15:38:30.902Z,8.10
2022-11-26T15:41:12.834Z,9.60
2022-11-26T15:43:44.746Z,8.00
2022-11-26T15:46:18.932Z,9.60
2022-11-26T15:48:59.298Z,9.50
2022-11-26T15:51:41.872Z,8.60
2022-11-26T15:59:44.318Z,9.60
2022-11-26T16:02:22.137Z,9.60
2022-11-26T16:07:34.827Z,9.50
2022-11-26T16:10:17.188Z,8.10
2022-11-26T16:13:04.221Z,8.40
2022-11-26T16:15:31.639Z,8.70
2022-11-26T16:17:58.934Z,8.40
2022-11-26T16:20:29.280Z,9.20
2022-11-26T16:22:59.264Z,9.90
2022-11-26T16:25:33.296Z,7.90
2022-11-26T16:28:10.121Z,7.50
2022-11-26T16:30:38.923Z,8.00
2022-11-26T16:33:06.837Z,9.50
2022-11-26T16:35:50.164Z,8.20
2022-11-26T16:41:02.900Z,9.40
2022-11-26T16:43:30.036Z,7.70
2022-11-26T16:45:59.006Z,9.20
2022-11-26T16:48:27.470Z,9.30
2022-11-26T16:50:56.409Z,9.20
2022-11-26T16:53:24.039Z,8.00
2022-11-26T16:55:53.813Z,9.10
2022-11-26T16:58:30.975Z,8.50
2022-11-26T17:00:58.337Z,9.20
2022-11-26T17:03:27.703Z,9.20
2022-11-26T17:05:58.693Z,9.10
2022-11-26T17:08:28.241Z,8.60
2022-11-26T17:10:56.196Z,8.80
2022-11-26T17:29:46.717Z,9.50
2022-11-26T17:32:17.330Z,9.50
2022-11-26T17:34:45.732Z,7.80
2022-11-26T17:37:25.523Z,8.00
2022-11-26T17:39:52.812Z,8.90
2022-11-26T17:42:20.379Z,8.00
2022-11-26T17:44:47.967Z,9.00
2022-11-26T17:47:17.861Z,9.30
2022-11-26T17:49:46.769Z,8.40
2022-11-26T17:52:15.127Z,9.00
2022-11-26T17:54:45.845Z,8.30
2022-11-26T17:57:17.118Z,8.50
2022-11-26T17:59:44.891Z,8.60
2022-11-26T18:02:12.471Z,8.20
2022-11-26T18:04:39.814Z,8.60
2022-11-26T18:07:17.766Z,8.10
2022-11-26T18:09:45.674Z,8.00
2022-11-26T18:14:48.344Z,8.50
2022-11-26T18:17:15.923Z,8.30
2022-11-26T18:19:43.867Z,7.20
2022-11-26T18:22:15.995Z,9.00
2022-11-26T18:38:21.007Z,9.20
2022-11-26T18:41:03.719Z,7.60
2022-11-26T18:43:36.353Z,9.00
2022-11-26T18:46:05.361Z,7.60
2022-11-26T18:48:37.171Z,7.40
2022-11-26T18:51:05.770Z,8.30
2022-11-26T18:53:33.913Z,9.10
2022-11-26T18:56:01.284Z,8.30
2022-11-26T18:58:28.426Z,9.70
2022-11-26T19:00:58.726Z,7.40
2022-11-26T19:03:27.746Z,7.80
2022-11-26T19:05:55.437Z,9.00
2022-11-26T19:08:23.771Z,9.10
2022-11-26T19:10:51.081Z,7.90
2022-11-26T19:18:37.064Z,9.20
2022-11-26T19:21:38.262Z,8.80
2022-11-26T19:24:27.180Z,9.30
2022-11-26T19:27:02.014Z,9.20
2022-11-26T19:29:28.978Z,9.20
2022-11-26T19:32:02.457Z,9.20
2022-11-26T19:34:29.437Z,9.30
2022-11-26T19:36:57.796Z,9.30
2022-11-26T19:39:24.940Z,9.30
2022-11-26T19:41:52.120Z,9.20
2022-11-26T19:44:18.914Z,9.20
2022-11-26T19:46:48.159Z,9.20
2022-11-26T19:49:15.564Z,9.10
2022-11-26T19:51:43.399Z,9.10
2022-11-26T19:54:10.671Z,9.10
2022-11-26T19:56:37.709Z,9.10
2022-11-26T19:59:05.402Z,9.10
2022-11-26T20:01:34.248Z,9.20
2022-11-26T20:04:03.852Z,9.10
2022-11-26T20:06:33.380Z,9.20
2022-11-26T20:09:00.551Z,9.20
2022-11-26T20:11:28.870Z,9.10
2022-11-26T20:13:56.455Z,9.10
2022-11-26T20:16:28.813Z,9.00
2022-11-26T20:18:56.589Z,9.10
2022-11-26T20:21:27.099Z,9.10
2022-11-26T20:23:57.123Z,9.10
2022-11-26T20:26:28.039Z,9.10
2022-11-26T20:28:56.288Z,9.10
2022-11-26T20:31:24.432Z,9.10
2022-11-26T20:33:53.745Z,9.20
2022-11-26T20:36:22.993Z,9.10
2022-11-26T20:38:54.930Z,9.00
2022-11-26T20:41:22.995Z,9.10
2022-11-26T20:43:56.654Z,9.00
2022-11-26T20:46:26.564Z,8.90
2022-11-26T20:48:53.553Z,8.70
2022-11-26T20:51:22.287Z,8.70
2022-11-26T20:53:50.697Z,8.80
2022-11-26T20:56:19.798Z,8.80
2022-11-26T20:58:47.281Z,8.80
2022-11-26T21:01:20.918Z,8.80
2022-11-26T21:03:48.382Z,8.90
2022-11-26T21:06:16.631Z,8.80
2022-11-26T21:08:43.990Z,8.90
2022-11-26T21:11:12.150Z,8.90
2022-11-26T21:13:39.829Z,9.00
2022-11-26T21:16:10.580Z,9.00
2022-11-26T21:18:37.570Z,9.10
2022-11-26T21:21:15.884Z,9.10
2022-11-26T21:23:44.426Z,9.10
2022-11-26T21:26:17.369Z,8.90
2022-11-26T21:28:44.412Z,9.10
2022-11-26T21:31:17.304Z,9.10
2022-11-26T21:33:46.043Z,9.10
2022-11-26T21:36:15.288Z,9.10
2022-11-26T21:38:43.027Z,9.10
2022-11-26T21:41:13.682Z,9.20
2022-11-26T21:43:41.577Z,9.20
2022-11-26T21:46:13.661Z,9.20
2022-11-26T21:48:40.552Z,9.20
2022-11-26T21:51:08.955Z,9.20
2022-11-26T21:53:36.187Z,9.20
2022-11-26T21:56:30.641Z,9.20
2022-11-26T21:58:59.157Z,9.20
2022-11-26T22:01:28.851Z,9.10
2022-11-26T22:03:59.282Z,9.10
2022-11-26T22:06:27.228Z,9.10
2022-11-26T22:08:54.739Z,9.10
2022-11-26T22:11:24.500Z,9.10
2022-11-26T22:13:52.784Z,9.10
2022-11-26T22:16:22.541Z,9.10
2022-11-26T22:18:50.559Z,9.10
2022-11-26T22:21:26.654Z,9.10
2022-11-26T22:23:53.773Z,9.10
2022-11-26T22:26:21.068Z,9.10
2022-11-26T22:28:49.788Z,9.10
2022-11-26T22:31:25.983Z,9.20
2022-11-26T22:34:14.462Z,9.20
2022-11-26T22:36:43.622Z,9.10
2022-11-26T22:39:13.342Z,9.00
2022-11-26T22:41:42.036Z,8.90
2022-11-26T22:44:09.223Z,8.90
2022-11-26T22:46:41.031Z,8.90
2022-11-26T22:49:11.202Z,8.80
2022-11-26T22:51:38.155Z,9.00
2022-11-26T22:54:07.539Z,9.00
2022-11-26T22:56:37.908Z,9.00
2022-11-26T22:59:07.006Z,9.00
2022-11-26T23:01:35.953Z,9.00
2022-11-26T23:04:06.357Z,8.90
2022-11-26T23:06:35.214Z,8.90
2022-11-26T23:09:04.577Z,9.00
2022-11-26T23:11:34.786Z,9.10
2022-11-26T23:14:07.376Z,9.00
2022-11-26T23:16:35.919Z,9.00
2022-11-26T23:19:03.987Z,9.10
2022-11-26T23:21:37.088Z,9.00
2022-11-26T23:24:04.743Z,9.00
2022-11-26T23:26:33.869Z,9.00
2022-11-26T23:29:02.480Z,9.10
2022-11-26T23:31:32.422Z,9.10
2022-11-26T23:33:59.936Z,9.10
2022-11-26T23:36:28.326Z,9.10
2022-11-26T23:38:56.229Z,9.00
2022-11-26T23:41:23.095Z,9.00
2022-11-26T23:43:50.030Z,9.00
2022-11-26T23:46:18.728Z,9.00
2022-11-26T23:48:46.980Z,9.10
2022-11-26T23:51:19.545Z,9.00
2022-11-26T23:53:48.044Z,9.00
2022-11-26T23:56:18.143Z,9.00
2022-11-26T23:58:47.790Z,9.00
